Time;durP1;ratioP1;P1;durP2;ratioP2;P2;SDS_P1;SDS_P2;PMS_P1;PMS_P2;Temp;Humidity;BMP_temperature;BMP_pressure;BME280_temperature;BME280_humidity;BME280_pressure;Samples;Min_cycle;Max_cycle;Signal;HPM_P1;HPM_P2
2024/04/07 10:03:47;;;;;;;2.90;1.70;;;;;;;18.51;65.76;99629.63;102250;1294;636260;-77
2024/04/07 10:06:17;;;;;;;2.60;1.80;;;;;;;18.51;65.65;99633.58;105000;1266;95213;-76
2024/04/07 10:08:47;;;;;;;3.70;1.90;;;;;;;18.54;66.00;99628.23;104896;1265;95305;-77
2024/04/07 10:11:19;;;;;;;3.10;1.80;;;;;;;18.68;65.79;99625.77;104912;1259;108428;-77
2024/04/07 10:13:47;;;;;;;4.00;2.00;;;;;;;18.73;65.64;99619.00;104853;1263;96277;-77
2024/04/07 10:16:16;;;;;;;4.10;1.90;;;;;;;18.72;65.42;99613.52;104712;1273;183671;-76
2024/04/07 10:18:48;;;;;;;4.10;2.20;;;;;;;18.73;65.47;99613.63;104964;1263;95285;-78
2024/04/07 10:21:16;;;;;;;2.90;1.90;;;;;;;18.79;65.61;99614.15;104857;1257;95305;-78
2024/04/07 10:23:47;;;;;;;3.20;2.00;;;;;;;18.82;65.12;99610.29;105458;1257;107957;-77
2024/04/07 10:26:18;;;;;;;2.70;2.00;;;;;;;18.79;64.86;99606.40;108598;1251;97686;-77
2024/04/07 10:28:55;;;;;;;3.10;2.20;;;;;;;18.75;64.59;99607.27;106857;1258;108582;-78
2024/04/07 10:31:32;;;;;;;2.80;1.80;;;;;;;18.75;64.91;99604.41;105357;1260;97340;-77
2024/04/07 10:51:32;;;;;;;3.40;1.80;;;;;;;19.25;63.79;99579.02;102858;1286;636749;-76
2024/04/07 10:54:02;;;;;;;3.70;2.30;;;;;;;19.22;63.77;99575.21;104322;1267;95294;-77
2024/04/07 10:56:31;;;;;;;4.40;1.70;;;;;;;19.23;63.73;99576.23;104293;1273;95430;-75
2024/04/07 10:59:01;;;;;;;6.00;2.00;;;;;;;19.24;63.71;99572.65;105035;1260;109635;-76
2024/04/07 11:01:30;;;;;;;5.60;2.00;;;;;;;19.29;63.70;99565.67;105311;1254;95241;-74
2024/04/07 11:03:57;;;;;;;2.80;1.50;;;;;;;19.40;63.82;99562.48;105093;1259;165187;-76
2024/04/07 11:06:26;;;;;;;2.20;1.60;;;;;;;19.46;63.61;99559.42;105408;1256;95248;-76
2024/04/07 11:08:55;;;;;;;5.10;1.80;;;;;;;19.50;63.30;99555.45;105442;1256;95296;-77
2024/04/07 11:11:23;;;;;;;2.30;1.60;;;;;;;19.51;63.20;99548.53;105523;1252;108535;-77
2024/04/07 11:13:51;;;;;;;4.50;2.20;;;;;;;19.53;63.24;99545.79;105327;1256;95566;-78
2024/04/07 11:16:19;;;;;;;2.10;1.60;;;;;;;19.62;63.11;99535.39;105390;1268;108024;-78
2024/04/07 11:18:47;;;;;;;2.20;1.40;;;;;;;19.70;62.88;99537.13;105427;1256;96713;-76
2024/04/07 11:21:15;;;;;;;2.60;1.50;;;;;;;19.76;62.79;99533.09;105522;1256;96706;-76
2024/04/07 11:23:42;;;;;;;2.80;1.50;;;;;;;19.84;62.79;99531.13;105145;1256;111298;-77
2024/04/07 11:26:13;;;;;;;4.10;1.60;;;;;;;19.90;62.67;99528.29;105302;1256;96694;-78
2024/04/07 11:28:41;;;;;;;3.10;1.90;;;;;;;19.93;62.43;99528.59;105165;1267;108094;-76
2024/04/07 11:31:09;;;;;;;2.70;1.60;;;;;;;19.95;62.52;99532.53;105145;1256;97958;-77
2024/04/07 11:33:36;;;;;;;2.60;1.30;;;;;;;20.00;62.27;99531.50;105138;1256;96689;-77
2024/04/07 11:36:04;;;;;;;2.60;1.50;;;;;;;20.02;62.32;99531.23;105497;1256;110422;-77
2024/04/07 11:38:45;;;;;;;;;;;;;;;;;;;;;
2024/04/07 11:41:26;;;;;;;3.00;1.80;;;;;;;20.18;62.13;99527.02;105064;1267;107705;-75
2024/04/07 11:43:54;;;;;;;2.40;1.60;;;;;;;20.25;61.88;99529.41;105271;1256;96659;-75
2024/04/07 11:46:22;;;;;;;2.40;1.60;;;;;;;20.24;61.57;99525.69;105092;1264;97643;-77
2024/04/07 11:48:50;;;;;;;3.00;1.60;;;;;;;20.24;61.28;99518.50;105653;1254;109949;-75
2024/04/07 11:51:20;;;;;;;2.50;1.80;;;;;;;20.20;61.08;99520.05;105092;1257;96540;-76
2024/04/07 11:53:48;;;;;;;2.30;1.70;;;;;;;20.15;60.96;99517.70;105356;1259;105754;-80
2024/04/07 11:56:25;;;;;;;3.70;1.70;;;;;;;20.16;60.92;99517.94;105878;1263;96698;-80
2024/04/07 11:58:55;;;;;;;3.00;1.70;;;;;;;20.23;60.84;99514.86;105389;1261;96625;-80
2024/04/07 12:01:29;;;;;;;2.30;1.40;;;;;;;20.22;60.70;99510.95;105489;1254;110433;-82
2024/04/07 12:03:58;;;;;;;2.30;1.40;;;;;;;20.28;60.57;99517.58;105943;1256;97440;-81
2024/04/07 12:06:26;;;;;;;2.60;1.80;;;;;;;20.30;60.64;99513.80;105964;1261;107651;-82
2024/04/07 12:08:57;;;;;;;2.80;2.20;;;;;;;20.30;60.33;99511.46;106197;1260;96598;-82
2024/04/07 12:11:25;;;;;;;3.10;2.00;;;;;;;20.30;60.11;99508.23;106866;1254;96607;-76
2024/04/07 12:13:53;;;;;;;3.20;1.60;;;;;;;20.26;59.81;99503.20;105463;1254;110016;-78
2024/04/07 12:16:21;;;;;;;2.40;1.50;;;;;;;20.22;60.15;99496.52;105476;1252;96662;-78
2024/04/07 12:18:49;;;;;;;2.00;1.40;;;;;;;20.25;59.97;99497.75;105657;1257;107729;-75
2024/04/07 12:21:19;;;;;;;4.70;1.70;;;;;;;20.31;59.91;99497.58;105493;1256;96660;-77
2024/04/07 12:23:52;;;;;;;3.10;1.60;;;;;;;20.36;59.91;99494.70;105486;1253;96753;-77
2024/04/07 12:26:35;;;;;;;1.90;1.40;;;;;;;20.42;59.69;99495.90;107715;1256;109460;-77
2024/04/07 12:29:03;;;;;;;2.10;1.40;;;;;;;20.47;59.69;99498.56;105602;1253;96627;-76
2024/04/07 12:31:31;;;;;;;2.90;1.40;;;;;;;20.53;59.43;99489.14;105514;1254;107722;-77
2024/04/07 12:33:59;;;;;;;2.40;1.40;;;;;;;20.56;59.21;99486.83;105391;1257;96634;-76
2024/04/07 12:36:27;;;;;;;2.20;1.40;;;;;;;20.58;59.23;99480.55;105370;1256;96693;-76
2024/04/07 12:38:54;;;;;;;4.40;1.40;;;;;;;20.59;58.99;99475.94;105176;1256;110219;-76
2024/04/07 12:41:22;;;;;;;4.40;2.00;;;;;;;20.60;59.04;99475.23;105325;1254;96495;-76
2024/04/07 12:43:50;;;;;;;2.60;1.40;;;;;;;20.65;58.97;99473.61;105269;1264;107510;-76
2024/04/07 12:46:17;;;;;;;2.50;1.30;;;;;;;20.73;58.91;99468.98;105440;1254;97116;-76
2024/04/07 12:48:45;;;;;;;2.30;1.50;;;;;;;20.79;58.50;99467.45;105449;1257;96601;-76
2024/04/07 12:51:13;;;;;;;3.60;1.40;;;;;;;20.75;58.72;99462.98;105257;1259;109907;-76
2024/04/07 12:53:41;;;;;;;2.90;1.50;;;;;;;20.76;58.40;99457.73;105296;1260;97541;-76
2024/04/07 12:56:11;;;;;;;2.50;1.50;;;;;;;20.78;58.39;99454.42;105027;1259;107549;-77
2024/04/07 12:58:39;;;;;;;3.10;1.40;;;;;;;20.80;58.46;99451.85;105340;1256;97532;-78
2024/04/07 13:01:09;;;;;;;2.30;1.50;;;;;;;20.79;57.86;99448.35;105431;1254;96762;-78
2024/04/07 13:03:37;;;;;;;2.40;1.40;;;;;;;20.73;57.97;99441.23;105403;1254;111242;-76
2024/04/07 13:06:05;;;;;;;2.30;1.60;;;;;;;20.70;57.78;99443.33;105256;1259;96652;-75
2024/04/07 13:08:32;;;;;;;3.10;1.60;;;;;;;20.66;57.46;99441.09;105186;1258;105833;-76
2024/04/07 13:11:01;;;;;;;1.90;1.40;;;;;;;20.58;57.48;99439.93;105327;1268;96707;-75
2024/04/07 13:13:29;;;;;;;2.80;1.40;;;;;;;20.53;57.21;99440.92;105444;1259;97283;-77
2024/04/07 13:15:57;;;;;;;3.40;1.50;;;;;;;20.50;57.21;99440.13;105274;1258;109686;-76
2024/04/07 13:53:20;;;;;;;8.80;2.10;;;;;;;20.91;56.20;99424.66;102383;1291;635476;-76
2024/04/07 13:55:49;;;;;;;3.20;1.70;;;;;;;20.96;55.99;99419.66;107756;1268;93237;-75
2024/04/07 13:58:17;;;;;;;2.50;1.70;;;;;;;20.95;55.83;99418.67;108170;1260;93015;-75
2024/04/07 14:00:46;;;;;;;2.80;1.70;;;;;;;20.89;55.89;99422.94;108266;1259;108722;-75
2024/04/07 14:03:15;;;;;;;2.90;1.70;;;;;;;20.90;55.84;99423.76;108281;1259;94116;-75
2024/04/07 14:05:43;;;;;;;2.40;1.60;;;;;;;20.92;55.93;99429.10;108237;1259;107724;-75
2024/04/07 14:08:11;;;;;;;2.60;1.50;;;;;;;20.96;55.48;99429.69;108273;1259;92854;-74
2024/04/07 14:10:43;;;;;;;2.60;1.50;;;;;;;20.97;55.48;99429.09;108283;1257;93186;-75
2024/04/07 14:13:10;;;;;;;2.50;1.70;;;;;;;21.00;55.50;99430.39;108298;1259;108852;-75
2024/04/07 14:15:38;;;;;;;3.10;1.60;;;;;;;21.05;55.23;99426.19;108348;1257;95299;-75
2024/04/07 14:18:06;;;;;;;1.90;1.30;;;;;;;21.06;55.36;99425.22;108370;1257;107758;-74
2024/04/07 14:20:34;;;;;;;2.80;1.60;;;;;;;21.12;55.48;99424.91;108405;1257;94287;-75
2024/04/07 14:23:02;;;;;;;2.30;1.60;;;;;;;21.14;55.28;99423.48;108305;1259;94723;-75
2024/04/07 14:25:30;;;;;;;2.40;1.50;;;;;;;21.15;55.14;99424.10;108342;1257;109966;-76
2024/04/07 14:27:58;;;;;;;2.80;1.70;;;;;;;21.15;54.82;99415.95;108288;1258;95473;-78
2024/04/07 14:30:26;;;;;;;3.00;1.50;;;;;;;21.16;54.78;99418.35;108248;1258;107684;-75
2024/04/07 14:32:54;;;;;;;4.70;1.90;;;;;;;21.14;54.76;99417.81;108242;1257;95344;-77
2024/04/07 14:35:22;;;;;;;3.50;1.60;;;;;;;21.14;54.80;99413.20;108436;1257;94192;-77
2024/04/07 14:37:50;;;;;;;3.10;1.70;;;;;;;21.13;54.91;99410.38;108310;1257;110569;-75
2024/04/07 14:40:18;;;;;;;2.70;1.60;;;;;;;21.15;54.79;99411.65;108335;1261;95586;-74
2024/04/07 14:42:46;;;;;;;2.00;1.50;;;;;;;21.15;54.53;99411.11;108386;1259;107969;-76
2024/04/07 14:45:14;;;;;;;2.90;1.80;;;;;;;21.08;54.44;99413.45;108285;1259;94635;-75
2024/04/07 14:47:44;;;;;;;3.30;1.60;;;;;;;21.02;54.61;99409.57;108672;1253;94326;-75
2024/04/07 14:53:03;;;;;;;2.30;1.60;;;;;;;21.03;54.46;99405.58;102065;1292;637030;-80
2024/04/07 14:55:31;;;;;;;2.10;1.70;;;;;;;21.02;54.47;99405.78;104526;1270;95296;-76
2024/04/07 14:57:58;;;;;;;2.40;1.70;;;;;;;21.02;54.43;99408.15;104743;1263;95865;-76
2024/04/07 15:00:26;;;;;;;2.80;1.70;;;;;;;20.98;54.25;99402.65;104852;1262;107754;-75
2024/04/07 15:02:54;;;;;;;2.80;1.60;;;;;;;20.92;54.29;99405.17;105008;1259;95653;-76
2024/04/07 15:05:22;;;;;;;2.80;1.70;;;;;;;20.92;54.48;99402.98;104751;1264;107788;-78
2024/04/07 15:07:50;;;;;;;2.90;1.60;;;;;;;20.91;54.32;99405.23;105274;1257;190726;-76
2024/04/07 15:10:19;;;;;;;2.40;1.60;;;;;;;20.83;54.11;99406.62;105332;1259;95305;-76
2024/04/07 15:12:50;;;;;;;2.40;1.70;;;;;;;20.77;54.05;99405.66;105178;1260;108726;-76
2024/04/07 15:15:18;;;;;;;3.30;1.80;;;;;;;20.71;53.86;99404.36;105504;1257;95330;-77
2024/04/07 15:17:47;;;;;;;2.40;1.60;;;;;;;20.64;54.11;99403.42;105432;1257;107577;-77
2024/04/07 15:20:15;;;;;;;2.70;1.70;;;;;;;20.57;53.95;99395.22;105488;1258;96535;-76
2024/04/07 15:22:45;;;;;;;2.50;1.70;;;;;;;20.52;53.97;99392.89;105456;1257;96624;-79
2024/04/07 15:25:19;;;;;;;5.40;2.00;;;;;;;20.48;53.99;99390.30;105663;1255;109937;-81
2024/04/07 15:27:54;;;;;;;2.70;1.50;;;;;;;20.44;53.92;99390.38;105551;1256;96524;-80
2024/04/07 15:30:21;;;;;;;3.10;1.50;;;;;;;20.39;53.89;99389.23;105086;1253;107571;-77
2024/04/07 15:32:49;;;;;;;2.20;1.40;;;;;;;20.40;53.94;99389.18;105503;1259;97522;-75
2024/04/07 15:35:17;;;;;;;2.80;1.70;;;;;;;20.41;53.95;99387.10;105383;1255;97306;-73
2024/04/07 15:37:44;;;;;;;3.00;1.50;;;;;;;20.37;53.87;99386.95;105160;1257;110013;-74
2024/04/07 15:40:15;;;;;;;2.40;1.70;;;;;;;20.31;53.85;99380.21;105283;1257;97809;-79
2024/04/07 15:42:43;;;;;;;2.20;1.60;;;;;;;20.25;53.86;99377.77;105609;1252;107313;-75
2024/04/07 15:45:11;;;;;;;2.90;1.80;;;;;;;20.20;53.91;99383.66;105619;1254;97427;-76
2024/04/07 15:47:39;;;;;;;2.30;1.70;;;;;;;20.18;53.89;99383.59;105405;1253;96592;-73
2024/04/07 15:50:06;;;;;;;2.10;1.50;;;;;;;20.18;53.83;99384.11;105398;1267;109603;-73
2024/04/07 15:52:41;;;;;;;2.50;1.50;;;;;;;20.21;53.84;99380.89;105548;1256;96981;-77
2024/04/07 15:55:16;;;;;;;3.00;1.60;;;;;;;20.21;53.71;99382.17;105317;1266;107587;-77
2024/04/07 15:57:55;;;;;;;3.50;1.70;;;;;;;20.18;53.54;99379.64;105344;1254;96615;-79
2024/04/07 16:00:28;;;;;;;2.70;1.70;;;;;;;20.18;53.66;99377.45;105505;1253;96759;-77
2024/04/07 16:03:07;;;;;;;2.90;1.80;;;;;;;20.17;53.64;99382.48;105433;1252;110163;-76
2024/04/07 16:05:46;;;;;;;3.60;1.90;;;;;;;20.17;53.88;99382.21;105576;1253;96671;-79
2024/04/07 16:08:15;;;;;;;3.80;2.00;;;;;;;20.19;53.81;99380.98;105354;1264;107715;-75
2024/04/07 16:10:53;;;;;;;6.90;2.10;;;;;;;20.16;53.99;99381.44;105632;1257;97517;-77
2024/04/07 16:13:25;;;;;;;3.30;1.80;;;;;;;20.13;53.96;99375.52;105588;1257;96701;-77
2024/04/07 16:16:47;;;;;;;4.10;2.00;;;;;;;20.16;53.81;99376.66;101952;1298;651050;-78
2024/04/07 16:19:19;;;;;;;3.00;2.00;;;;;;;20.10;53.71;99379.90;105367;1266;96547;-76
2024/04/07 16:22:02;;;;;;;2.70;1.70;;;;;;;20.05;53.86;99376.65;105011;1266;95254;-79
2024/04/07 16:24:34;;;;;;;4.70;1.80;;;;;;;20.02;53.91;99380.17;104710;1279;108496;-77
2024/04/07 16:27:24;;;;;;;3.10;1.90;;;;;;;19.99;53.95;99377.30;104942;1266;95485;-77
2024/04/07 16:29:58;;;;;;;4.00;2.00;;;;;;;19.95;53.72;99381.23;100996;1263;5354190;-76
2024/04/07 16:32:51;;;;;;;5.40;1.70;;;;;;;19.89;53.89;99379.94;104802;1261;95215;-76
2024/04/07 16:35:30;;;;;;;3.20;1.80;;;;;;;19.84;53.84;99377.24;105482;1259;110569;-80
2024/04/07 16:38:17;;;;;;;4.30;2.20;;;;;;;19.77;53.77;99379.20;105496;1257;96204;-76
2024/04/07 16:41:08;;;;;;;2.40;1.80;;;;;;;19.70;53.91;99381.48;105152;1256;108181;-76
2024/04/07 16:44:02;;;;;;;3.20;1.80;;;;;;;19.57;53.84;99381.91;105413;1257;97786;-77
2024/04/07 16:46:56;;;;;;;4.20;1.90;;;;;;;19.45;53.88;99382.40;105396;1256;97957;-78
2024/04/07 16:49:39;;;;;;;4.30;1.90;;;;;;;19.34;53.91;99384.34;106595;1253;109868;-80
2024/04/07 16:52:32;;;;;;;4.70;2.30;;;;;;;19.19;54.04;99384.52;105508;1254;96602;-79
2024/04/07 16:55:05;;;;;;;5.60;1.80;;;;;;;19.10;53.99;99378.38;105636;1256;107592;-75
2024/04/07 16:57:32;;;;;;;3.00;2.10;;;;;;;19.00;54.03;99382.06;105359;1254;96738;-76
2024/04/07 16:59:59;;;;;;;3.70;1.80;;;;;;;18.88;54.04;99380.05;105515;1256;96693;-76
2024/04/07 17:02:32;;;;;;;2.90;1.80;;;;;;;18.76;54.11;99380.84;105537;1257;109887;-77
2024/04/07 17:05:00;;;;;;;;;;;;;;;18.65;54.24;99386.32;105623;1254;96562;-76
2024/04/07 17:53:27;;;;;;;5.80;2.70;;;;;;;16.34;55.05;99416.52;102587;1290;635938;-77
2024/04/07 17:55:55;;;;;;;3.80;2.70;;;;;;;16.23;55.03;99423.06;104324;1271;95253;-75
2024/04/07 17:58:23;;;;;;;5.00;2.90;;;;;;;16.11;54.89;99426.48;104240;1268;96597;-76
2024/04/07 18:00:51;;;;;;;6.30;2.90;;;;;;;16.04;55.14;99423.72;104422;1268;108617;-78
2024/04/07 18:03:20;;;;;;;5.40;3.10;;;;;;;16.00;55.09;99426.21;105251;1260;95218;-77
2024/04/07 18:05:48;;;;;;;5.80;2.90;;;;;;;15.91;55.30;99428.23;105279;1259;107475;-77
2024/04/07 18:08:53;;;;;;;5.80;2.60;;;;;;;15.87;55.19;99432.16;102293;1293;649723;-79
2024/04/07 18:11:19;;;;;;;5.20;2.90;;;;;;;15.74;55.47;99432.91;104507;1272;95337;-75
2024/04/07 18:13:49;;;;;;;8.10;3.50;;;;;;;15.65;55.56;99430.84;106559;1267;95296;-76
2024/04/07 18:16:17;;;;;;;6.10;3.20;;;;;;;15.57;55.58;99433.54;106035;1266;108487;-74
2024/04/07 18:18:45;;;;;;;5.50;3.00;;;;;;;15.44;55.77;99431.39;104902;1266;95460;-80
2024/04/07 18:21:12;;;;;;;5.00;3.20;;;;;;;15.39;55.67;99432.39;104667;1276;529399;-77
2024/04/07 18:23:45;;;;;;;5.50;3.60;;;;;;;15.26;55.80;99432.27;105335;1262;95266;-78
2024/04/07 18:26:16;;;;;;;5.00;3.30;;;;;;;15.16;55.95;99432.91;105353;1257;95964;-78
2024/04/07 18:28:44;;;;;;;7.50;3.40;;;;;;;15.08;55.96;99430.58;105169;1265;108260;-77
2024/04/07 18:31:13;;;;;;;6.90;3.30;;;;;;;15.02;56.03;99428.21;105843;1256;95510;-81
2024/04/07 18:33:46;;;;;;;10.10;3.20;;;;;;;14.94;56.17;99429.14;105245;1267;107747;-81
2024/04/07 18:36:22;;;;;;;4.20;3.20;;;;;;;14.86;56.30;99427.27;105237;1260;97348;-79
2024/04/07 18:39:11;;;;;;;6.00;2.80;;;;;;;14.80;56.36;99424.19;105504;1257;96630;-77
2024/04/07 18:41:38;;;;;;;5.10;3.30;;;;;;;14.73;56.30;99424.98;105600;1267;109421;-77
2024/04/07 18:44:05;;;;;;;5.10;3.10;;;;;;;14.65;56.31;99421.86;105534;1256;97662;-77
2024/04/07 18:46:32;;;;;;;6.00;3.00;;;;;;;14.55;56.55;99421.60;105667;1261;96674;-79
2024/04/07 18:48:59;;;;;;;5.50;2.80;;;;;;;14.51;56.58;99414.31;105909;1256;96604;-78
2024/04/07 18:51:29;;;;;;;6.90;3.00;;;;;;;14.44;56.56;99412.94;105178;1261;97943;-77
2024/04/07 18:53:55;;;;;;;7.50;3.10;;;;;;;14.35;56.67;99413.96;105653;1257;109979;-79
2024/04/07 18:56:29;;;;;;;6.10;3.00;;;;;;;14.31;56.74;99411.66;105334;1255;96706;-78
2024/04/07 18:58:56;;;;;;;4.80;2.70;;;;;;;14.26;56.94;99412.19;105438;1258;107550;-77
2024/04/07 19:01:27;;;;;;;6.40;3.20;;;;;;;14.24;56.99;99411.52;105641;1254;96527;-79
2024/04/07 19:03:53;;;;;;;7.40;3.60;;;;;;;14.21;56.91;99407.64;105577;1258;96622;-81
2024/04/07 19:06:21;;;;;;;6.60;3.70;;;;;;;14.13;57.14;99407.61;105263;1266;110402;-78
2024/04/07 19:08:48;;;;;;;5.30;3.00;;;;;;;14.09;57.14;99406.15;105255;1268;98039;-79
2024/04/07 19:11:18;;;;;;;5.60;3.70;;;;;;;14.07;57.17;99407.17;105427;1266;96684;-77
2024/04/07 19:13:50;;;;;;;4.70;3.10;;;;;;;14.06;57.32;99408.54;105407;1258;96630;-78
2024/04/07 19:16:20;;;;;;;6.50;3.70;;;;;;;14.07;57.38;99405.25;105376;1266;96605;-78
2024/04/07 19:18:47;;;;;;;7.00;3.80;;;;;;;14.08;57.39;99395.82;105931;1254;96614;-78
2024/04/07 19:21:45;;;;;;;;;;;;;;;;;;;;;
2024/04/07 19:25:52;;;;;;;;;;;;;;;;;;;;;
2024/04/07 19:29:32;;;;;;;;;;;;;;;;;;;;;
2024/04/07 19:33:19;;;;;;;;;;;;;;;;;;;;;
2024/04/07 19:37:11;;;;;;;;;;;;;;;;;;;;;
2024/04/07 19:41:21;;;;;;;;;;;;;;;;;;;;;
2024/04/07 19:45:34;;;;;;;5.00;2.70;;;;;;;14.60;57.87;99384.97;105293;1269;108113;-77
2024/04/07 19:49:12;;;;;;;4.50;2.50;;;;;;;14.71;57.98;99387.23;104012;1277;98267;-78
2024/04/07 19:56:11;;;;;;;4.50;2.50;;;;;;;14.87;58.10;99386.62;103970;1278;110364;-78
2024/04/07 20:04:14;;;;;;;4.70;2.70;;;;;;;14.96;58.20;99377.34;104317;1279;107908;-81
2024/04/07 20:08:39;;;;;;;;;;;;;;;;;;;;;
2024/04/07 20:12:32;;;;;;;;;;;;;;;;;;;;;
2024/04/07 20:16:35;;;;;;;4.20;2.70;;;;;;;15.03;58.25;99363.33;103821;1280;110400;-79
2024/04/07 20:21:04;;;;;;;;;;;;;;;;;;;;;
2024/04/07 20:24:29;;;;;;;3.80;2.10;;;;;;;15.09;58.43;99366.20;102757;1285;107722;-78
2024/04/07 20:32:48;;;;;;;;;;;;;;;;;;;;;
2024/04/07 20:36:29;;;;;;;;;;;;;;;;;;;;;
2024/04/07 20:44:36;;;;;;;;;;;;;;;;;;;;;
2024/04/07 20:54:46;;;;;;;;;;;;;;;;;;;;;
2024/04/07 21:02:50;;;;;;;2.90;2.10;;;;;;;15.06;58.83;99359.88;103786;1286;95440;-78
2024/04/07 21:14:30;;;;;;;;;;;;;;;;;;;;;
2024/04/07 21:22:16;;;;;;;;;;;;;;;;;;;;;
2024/04/07 21:29:43;;;;;;;;;;;;;;;;;;;;;
2024/04/07 21:39:15;;;;;;;4.70;2.20;;;;;;;15.05;59.16;99347.42;104920;1278;95293;-77
2024/04/07 21:47:42;;;;;;;;;;;;;;;;;;;;;
2024/04/07 21:55:37;;;;;;;3.20;2.20;;;;;;;15.25;59.25;99344.35;105138;1266;108895;-78
2024/04/07 22:04:10;;;;;;;;;;;;;;;;;;;;;
2024/04/07 22:19:51;;;;;;;;;;;;;;;;;;;;;
2024/04/07 22:28:08;;;;;;;;;;;;;;;;;;;;;
2024/04/07 22:32:10;;;;;;;;;;;;;;;;;;;;;
2024/04/07 22:37:01;;;;;;;;;;;;;;;;;;;;;
2024/04/07 22:55:08;;;;;;;;;;;;;;;;;;;;;
2024/04/07 22:59:47;;;;;;;;;;;;;;;;;;;;;
2024/04/07 23:11:50;;;;;;;3.70;1.90;;;;;;;15.55;59.13;99322.73;104658;1270;107726;-80
2024/04/07 23:15:43;;;;;;;3.00;2.00;;;;;;;15.57;59.08;99323.76;105068;1261;95349;-80
2024/04/07 23:19:47;;;;;;;;;;;;;;;;;;;;;
2024/04/07 23:23:53;;;;;;;3.40;2.00;;;;;;;15.56;59.02;99322.77;104937;1264;109944;-78
2024/04/07 23:27:54;;;;;;;;;;;;;;;;;;;;;
2024/04/07 23:35:53;;;;;;;;;;;;;;;;;;;;;
2024/04/07 23:39:47;;;;;;;;;;;;;;;;;;;;;
